Airport View

Enter AWOS ICAO identifier for current METAR.

ex. KFNL

PAGA 202356Z AUTO 31007KT 270V340 10SM OVC031 06/M01 A2940

21 Sep 2019 00:54

Frequency: 132.525

Phone: 907-656-2483

Other Area AWOS: PARY - PAKV - PAHL - PAIM

TAF PAGA 202334Z 2100/2124 VRB06KT P6SM VCSH SCT025 BKN035 OVC050